Loïc Lerenard

Loïc Lerenard

Statistiques 2019

  • Nb de partants : 88
  • Nb de victoires : 10
  • Nb de places : 23
  • Écart gagnant : 15
  • Réussite à la gagne : 11%
  • Réussite à la place : 26%
Musique : 3m 9a 6a 5a 3a Da 2a 7a 6m Da Da 9a 5m Dm Da 1a 2a 3a
ChevalDernière courseCoursesVictoiresR. à la gagnePlacésR. à la place
Felicia de Forges 24/03/19 0 0 - 0 -
Feria Fratelli 24/03/19 12 1 8% 3 25%
Goliath du Caux 24/03/19 3 0 - 0 -
Gaspard des Loups 24/03/19 0 0 - 0 -
Flying Wonder 24/03/19 12 1 8% 4 33%
Fangio des Iris 20/03/19 9 2 22% 5 56%
Eclat des Noix 20/03/19 28 5 18% 10 36%
Emilie des Iris 17/03/19 12 1 8% 5 42%
Dgin du Caux 17/03/19 39 3 8% 10 26%
Fifa de Chenou 15/03/19 0 0 - 0 -
Arenga de Neret 15/03/19 85 7 8% 23 27%
Day To Day 14/03/19 39 4 10% 11 28%
Cadence d'Urzy 14/03/19 61 2 3% 11 18%
Desir de Banome 13/03/19 26 3 12% 5 19%
Fortuna de Coudde 10/03/19 3 0 - 0 -
Canto de Bertrange 04/03/19 38 2 5% 11 29%
Guinness du Vallon 03/03/19 0 0 - 0 -
Galaxie du Loisir 03/03/19 0 0 - 0 -
Etincelle du Caux 25/02/19 19 1 5% 4 21%
Extravaganza 25/02/19 16 1 6% 3 19%
Grimm 25/02/19 0 0 - 0 -
Elite Speed 24/02/19 17 0 - 4 24%
Guepard Griff 21/02/19 1 0 - 0 -
Felin du Loisir 21/02/19 11 1 9% 3 27%
Come On du Vallon 20/02/19 43 9 21% 13 30%
Coyote du Caux 16/02/19 30 3 10% 9 30%
Bonviva 16/02/19 66 6 9% 17 26%
Ecu du Chassin 10/02/19 9 1 11% 3 33%
Esperanza Volsin 31/01/19 32 3 9% 6 19%
Eva de Clerlande 31/01/19 25 2 8% 5 20%
Blumberg Delo 26/01/19 62 8 13% 16 26%
Ambiance du Loisir 22/01/19 66 9 14% 19 29%
Fleche d'Ete 21/01/19 3 0 - 0 -
Eureka de Chenou 14/01/19 22 4 18% 5 23%
Bella Cruz 04/01/19 54 6 11% 16 30%
Danyrose 04/01/19 29 0 - 4 14%
Friend de Joudes 02/12/18 0 0 - 0 -
Danae de Coude 18/11/18 22 2 9% 5 23%
Espoir Creusois 09/11/18 22 1 5% 2 9%
Eleve d'Urzy 21/10/18 7 1 14% 1 14%
Earthquake Bellay 14/10/18 16 1 6% 2 13%
Camilla Robsons 30/09/18 29 5 17% 12 41%
Baccarat Griff 23/09/18 47 2 4% 8 17%
Urifan de Couddes 20/09/18 80 8 10% 26 33%
Casbah Wood 15/09/18 68 2 3% 7 10%
Dis Moi Oui 15/08/18 20 1 5% 4 20%
Faustine du Loisir 01/08/18 8 0 - 0 -
Ellioth du Raisine 31/07/18 6 0 - 1 17%
Dream Of Rider 06/07/18 15 1 7% 2 13%
Flicka 29/06/18 3 0 - 0 -